Time;durP1;ratioP1;P1;durP2;ratioP2;P2;SDS_P1;SDS_P2;PMS_P1;PMS_P2;Temp;Humidity;BMP_temperature;BMP_pressure;BME280_temperature;BME280_humidity;BME280_pressure;Samples;Min_cycle;Max_cycle;Signal;HPM_P1;HPM_P2
2022/03/15 00:00:33;;;;;;;26.77;13.23;;;4.40;99.90;;;;;;5013307;28;20049;-39
2022/03/15 00:02:59;;;;;;;20.77;10.73;;;4.40;99.90;;;;;;5013175;28;20050;-40
2022/03/15 00:05:26;;;;;;;25.13;11.85;;;4.40;99.90;;;;;;5012245;28;20133;-40
2022/03/15 00:07:53;;;;;;;25.50;11.05;;;4.40;99.90;;;;;;5013334;28;20077;-39
2022/03/15 00:10:19;;;;;;;21.75;11.32;;;4.50;99.90;;;;;;5013093;28;20061;-39
2022/03/15 00:12:46;;;;;;;18.80;10.02;;;4.50;99.90;;;;;;5014085;28;20390;-40
2022/03/15 00:15:13;;;;;;;27.40;11.23;;;4.50;99.90;;;;;;5011834;28;20490;-39
2022/03/15 00:17:42;;;;;;;25.45;11.85;;;4.40;99.90;;;;;;5011590;28;20042;-39
2022/03/15 00:20:11;;;;;;;27.58;11.85;;;4.40;99.90;;;;;;5013220;28;20042;-39
2022/03/15 00:22:38;;;;;;;25.75;11.82;;;4.40;99.90;;;;;;5012168;28;20418;-39
2022/03/15 00:25:05;;;;;;;21.30;11.85;;;4.40;99.90;;;;;;5011779;28;20058;-39
2022/03/15 00:27:32;;;;;;;22.35;11.07;;;4.40;99.90;;;;;;5011050;28;20046;-39
2022/03/15 00:29:59;;;;;;;26.60;11.55;;;4.40;99.90;;;;;;5010451;28;20129;-39
2022/03/15 00:32:25;;;;;;;29.05;13.23;;;4.40;99.90;;;;;;5008177;28;20410;-39
2022/03/15 00:34:53;;;;;;;31.30;13.43;;;4.40;99.90;;;;;;5012024;28;20549;-39
2022/03/15 00:37:21;;;;;;;25.25;12.23;;;4.40;99.90;;;;;;5012660;28;20050;-39
2022/03/15 00:39:49;;;;;;;25.77;12.07;;;4.40;99.90;;;;;;5012223;28;20386;-39
2022/03/15 00:42:16;;;;;;;27.52;12.23;;;4.40;99.90;;;;;;5012983;28;20613;-39
2022/03/15 00:44:42;;;;;;;23.60;11.15;;;4.40;99.90;;;;;;5012770;28;20038;-39
2022/03/15 00:47:10;;;;;;;20.15;10.85;;;4.30;99.90;;;;;;5012205;28;20048;-39
2022/03/15 00:49:36;;;;;;;20.83;10.25;;;4.40;99.90;;;;;;5022860;28;20513;-39
2022/03/15 00:52:05;;;;;;;17.58;8.75;;;4.40;99.90;;;;;;5011921;28;20041;-39
2022/03/15 00:54:31;;;;;;;18.67;9.75;;;4.30;99.90;;;;;;5011349;28;20448;-39
2022/03/15 00:56:58;;;;;;;18.40;9.38;;;4.30;99.90;;;;;;5010350;28;20049;-39
2022/03/15 00:59:25;;;;;;;19.38;8.95;;;4.30;99.90;;;;;;5011339;28;20046;-39
2022/03/15 01:01:52;;;;;;;17.33;8.98;;;4.30;99.90;;;;;;5011598;28;20051;-39
2022/03/15 01:04:18;;;;;;;14.35;8.38;;;4.20;99.90;;;;;;5010745;28;20084;-39
2022/03/15 01:06:45;;;;;;;19.92;8.95;;;4.30;99.90;;;;;;5011436;28;20042;-39
2022/03/15 01:09:13;;;;;;;17.13;8.23;;;4.20;99.90;;;;;;5012657;28;20388;-40
2022/03/15 01:11:40;;;;;;;18.45;8.90;;;4.20;99.90;;;;;;5007448;28;20034;-39
2022/03/15 01:14:07;;;;;;;18.10;8.25;;;4.20;99.90;;;;;;5012113;28;20050;-40
2022/03/15 01:16:34;;;;;;;14.07;8.48;;;4.10;99.90;;;;;;5010720;28;20609;-39
2022/03/15 01:19:01;;;;;;;15.10;7.60;;;4.10;99.90;;;;;;5011008;28;20048;-39
2022/03/15 01:21:28;;;;;;;18.70;10.00;;;4.10;99.90;;;;;;5011227;28;20049;-40
2022/03/15 01:23:54;;;;;;;19.15;9.60;;;4.10;99.90;;;;;;5012241;28;20045;-40
2022/03/15 01:26:22;;;;;;;20.10;11.05;;;4.10;99.90;;;;;;5011529;28;20456;-39
2022/03/15 01:28:49;;;;;;;17.60;10.15;;;4.10;99.90;;;;;;5011242;28;20363;-40
2022/03/15 01:31:16;;;;;;;19.10;10.35;;;4.10;99.90;;;;;;5012413;28;20136;-39
2022/03/15 01:33:45;;;;;;;17.88;8.20;;;4.10;99.90;;;;;;5009869;28;20141;-39
2022/03/15 01:36:12;;;;;;;15.60;9.00;;;4.00;99.90;;;;;;5007287;28;20041;-39
2022/03/15 01:38:39;;;;;;;15.27;9.38;;;4.00;99.90;;;;;;5011735;28;20470;-39
2022/03/15 01:41:06;;;;;;;16.02;9.60;;;4.00;99.90;;;;;;5011833;28;20129;-39
2022/03/15 01:43:34;;;;;;;19.73;10.73;;;4.00;99.90;;;;;;5012113;28;20117;-40
2022/03/15 01:46:00;;;;;;;16.10;9.15;;;4.10;99.90;;;;;;5011097;28;20046;-39
2022/03/15 01:48:27;;;;;;;23.65;10.77;;;4.00;99.90;;;;;;5011314;28;20112;-40
2022/03/15 01:50:54;;;;;;;17.92;9.73;;;4.00;99.90;;;;;;5011793;28;20038;-39
2022/03/15 01:53:20;;;;;;;21.92;10.95;;;4.00;99.90;;;;;;5008395;28;20120;-39
2022/03/15 01:55:47;;;;;;;18.70;9.32;;;4.10;99.90;;;;;;5010175;28;20050;-39
2022/03/15 01:58:14;;;;;;;15.43;8.02;;;4.00;99.90;;;;;;5003153;28;20050;-39
2022/03/15 02:00:42;;;;;;;15.48;8.65;;;4.00;99.90;;;;;;5010739;28;20114;-39
2022/03/15 02:03:09;;;;;;;15.68;8.32;;;4.00;99.90;;;;;;5010578;28;20060;-39
2022/03/15 02:05:36;;;;;;;17.33;8.57;;;4.00;99.90;;;;;;5010265;28;20056;-39
2022/03/15 02:08:10;;;;;;;12.88;8.65;;;4.10;99.90;;;;;;5011492;28;20092;-39
2022/03/15 02:10:37;;;;;;;14.43;7.72;;;4.10;99.90;;;;;;5018406;28;20045;-39
2022/03/15 02:13:03;;;;;;;12.43;8.27;;;4.10;99.90;;;;;;5018170;28;20100;-39
2022/03/15 02:15:30;;;;;;;16.55;9.02;;;4.10;99.90;;;;;;5009870;28;20389;-39
2022/03/15 02:17:58;;;;;;;14.27;8.70;;;4.10;99.90;;;;;;5018206;28;20121;-39
2022/03/15 02:20:26;;;;;;;16.85;10.27;;;4.20;99.90;;;;;;5017103;28;20067;-39
2022/03/15 02:22:53;;;;;;;15.77;8.13;;;4.20;99.90;;;;;;5016240;28;20042;-39
2022/03/15 02:25:20;;;;;;;20.60;9.38;;;4.20;99.90;;;;;;5017775;28;20137;-39
2022/03/15 02:27:46;;;;;;;18.35;9.18;;;4.20;99.90;;;;;;5018032;28;20045;-39
2022/03/15 02:30:13;;;;;;;23.10;9.85;;;4.20;99.90;;;;;;5018023;28;20056;-39
2022/03/15 02:32:40;;;;;;;16.80;8.70;;;4.20;99.90;;;;;;5016635;28;20038;-39
2022/03/15 02:35:08;;;;;;;12.13;8.15;;;4.20;99.90;;;;;;5016825;28;20077;-39
2022/03/15 02:37:36;;;;;;;15.63;7.32;;;4.20;99.90;;;;;;5016419;28;20053;-39
2022/03/15 02:40:03;;;;;;;15.32;8.55;;;4.20;99.90;;;;;;5017092;28;20054;-39
2022/03/15 02:42:30;;;;;;;18.85;7.80;;;4.20;99.90;;;;;;5010653;28;20046;-39
2022/03/15 02:44:57;;;;;;;15.05;9.05;;;4.10;99.90;;;;;;5014011;28;20068;-39
2022/03/15 02:47:23;;;;;;;18.58;8.38;;;4.20;99.90;;;;;;5017507;28;20208;-39
2022/03/15 02:49:50;;;;;;;15.95;9.10;;;4.20;99.90;;;;;;5016690;28;20056;-39
2022/03/15 02:52:17;;;;;;;14.60;7.75;;;4.10;99.90;;;;;;5016876;28;20053;-39
2022/03/15 02:54:45;;;;;;;15.02;8.00;;;4.10;99.90;;;;;;5016841;28;20121;-39
2022/03/15 02:57:12;;;;;;;22.52;9.93;;;4.10;99.90;;;;;;5017537;28;20056;-39
2022/03/15 02:59:39;;;;;;;24.73;11.57;;;4.10;99.90;;;;;;5015056;28;20466;-39
2022/03/15 03:02:08;;;;;;;24.05;11.55;;;4.10;99.90;;;;;;5016854;28;20045;-39
2022/03/15 03:04:34;;;;;;;28.48;12.45;;;4.00;99.90;;;;;;5016807;28;20042;-39
2022/03/15 03:07:02;;;;;;;16.02;9.38;;;4.00;99.90;;;;;;5016220;28;20142;-39
2022/03/15 03:09:29;;;;;;;18.30;9.57;;;4.00;99.90;;;;;;5015219;28;20127;-39
2022/03/15 03:11:57;;;;;;;20.35;10.73;;;4.00;99.90;;;;;;5013300;28;20073;-39
2022/03/15 03:14:24;;;;;;;22.17;9.13;;;4.00;99.90;;;;;;5017607;28;20429;-39
2022/03/15 03:16:51;;;;;;;17.75;8.80;;;3.90;99.90;;;;;;5017037;28;20133;-39
2022/03/15 03:19:19;;;;;;;17.83;8.13;;;3.90;99.90;;;;;;5014684;28;20052;-40
2022/03/15 03:21:48;;;;;;;17.58;9.43;;;3.90;99.90;;;;;;5013409;28;20406;-39
2022/03/15 03:24:21;;;;;;;15.15;7.90;;;3.90;99.90;;;;;;5013315;28;20133;-40
2022/03/15 03:26:47;;;;;;;20.38;9.15;;;3.90;99.90;;;;;;5014163;28;20045;-39
2022/03/15 03:29:16;;;;;;;16.85;8.65;;;3.80;99.90;;;;;;5012424;28;20050;-39
2022/03/15 03:31:43;;;;;;;13.43;7.63;;;3.80;99.90;;;;;;5013796;28;20391;-39
2022/03/15 03:34:11;;;;;;;20.00;10.52;;;3.80;99.90;;;;;;5014249;28;20034;-39
2022/03/15 03:36:38;;;;;;;18.13;8.98;;;3.80;99.90;;;;;;5014144;28;20057;-40
2022/03/15 03:39:05;;;;;;;17.27;8.82;;;3.90;99.90;;;;;;5013951;28;20041;-39
2022/03/15 03:41:32;;;;;;;15.55;8.77;;;3.80;99.90;;;;;;5013454;28;20052;-39
2022/03/15 03:43:58;;;;;;;15.80;8.38;;;3.90;99.90;;;;;;5013725;28;20049;-39
2022/03/15 03:46:27;;;;;;;22.30;10.82;;;3.90;99.90;;;;;;5013572;28;20042;-39
2022/03/15 03:48:54;;;;;;;29.50;12.20;;;3.80;99.90;;;;;;5014063;28;20092;-39
2022/03/15 03:51:21;;;;;;;18.08;9.38;;;3.90;99.90;;;;;;5012264;28;20049;-39
2022/03/15 03:53:48;;;;;;;22.95;9.80;;;3.90;99.90;;;;;;5012459;28;20042;-39
2022/03/15 03:56:15;;;;;;;17.77;11.20;;;3.90;99.90;;;;;;5012937;28;20052;-40
2022/03/15 03:58:41;;;;;;;20.35;9.43;;;3.90;99.90;;;;;;5012891;28;20042;-39
2022/03/15 04:01:08;;;;;;;14.30;8.43;;;3.90;99.90;;;;;;5013364;28;20044;-39
2022/03/15 04:03:36;;;;;;;22.70;10.13;;;3.90;99.90;;;;;;5005885;28;20470;-39
2022/03/15 04:06:03;;;;;;;19.83;10.10;;;3.90;99.90;;;;;;5012733;28;20042;-39
2022/03/15 04:08:31;;;;;;;15.50;8.20;;;3.90;99.90;;;;;;5012898;28;20121;-40
2022/03/15 04:10:58;;;;;;;23.65;9.45;;;3.90;99.90;;;;;;5013392;28;20055;-39
2022/03/15 04:13:26;;;;;;;24.35;10.82;;;3.90;99.90;;;;;;5006872;28;20386;-39
2022/03/15 04:15:53;;;;;;;25.00;11.70;;;3.90;99.90;;;;;;5012703;28;20058;-39
2022/03/15 04:18:19;;;;;;;17.13;9.18;;;3.90;99.90;;;;;;5013380;28;20042;-39
2022/03/15 04:20:47;;;;;;;19.45;10.13;;;4.00;99.90;;;;;;5012448;28;20045;-38
2022/03/15 04:23:15;;;;;;;24.65;11.55;;;3.90;99.90;;;;;;5013656;28;20042;-39
2022/03/15 04:25:42;;;;;;;29.73;12.07;;;4.00;99.90;;;;;;4994557;28;20046;-39
2022/03/15 04:28:09;;;;;;;29.85;14.68;;;4.00;99.90;;;;;;5008894;28;20052;-39
2022/03/15 04:30:36;;;;;;;35.05;14.68;;;4.00;99.90;;;;;;5013222;28;20053;-39
2022/03/15 04:33:02;;;;;;;37.25;16.75;;;4.00;99.90;;;;;;5014136;28;20073;-39
2022/03/15 04:35:30;;;;;;;36.13;17.02;;;4.00;99.90;;;;;;5012682;28;20498;-39
2022/03/15 04:37:58;;;;;;;37.45;17.70;;;4.10;99.90;;;;;;5013600;28;20132;-39
2022/03/15 04:40:24;;;;;;;41.97;17.92;;;4.10;99.90;;;;;;5013350;28;20498;-39
2022/03/15 04:42:52;;;;;;;38.85;17.40;;;4.10;99.90;;;;;;5011331;28;20050;-40
2022/03/15 04:45:19;;;;;;;40.90;19.73;;;4.10;99.90;;;;;;5013541;28;20501;-39
2022/03/15 04:47:46;;;;;;;51.17;22.00;;;4.20;99.90;;;;;;5013222;28;20474;-39
2022/03/15 04:50:13;;;;;;;41.30;20.95;;;4.20;99.90;;;;;;5013007;28;20052;-39
2022/03/15 04:52:40;;;;;;;43.42;19.70;;;4.20;99.90;;;;;;5001785;28;20094;-39
2022/03/15 04:55:08;;;;;;;48.22;22.17;;;4.30;99.90;;;;;;5010057;28;20046;-39
2022/03/15 04:57:35;;;;;;;45.00;21.55;;;4.30;99.90;;;;;;5010890;28;20054;-39
2022/03/15 05:00:08;;;;;;;46.67;23.08;;;4.30;99.90;;;;;;5011241;28;20052;-39
2022/03/15 05:02:35;;;;;;;47.95;23.27;;;4.40;99.90;;;;;;5004894;28;20093;-39
2022/03/15 05:05:02;;;;;;;46.83;22.13;;;4.40;99.90;;;;;;5012599;28;20410;-39
2022/03/15 05:07:28;;;;;;;53.10;24.08;;;4.40;99.90;;;;;;5010880;28;20128;-39
2022/03/15 05:12:42;;;;;;;55.65;25.67;;;4.50;99.90;;;;;;5010786;28;20494;-38
2022/03/15 05:15:09;;;;;;;53.95;25.52;;;4.50;99.90;;;;;;5010816;28;20053;-39
2022/03/15 05:17:36;;;;;;;52.10;25.23;;;4.50;99.90;;;;;;5011140;28;20478;-40
2022/03/15 05:20:04;;;;;;;57.85;27.63;;;4.50;99.90;;;;;;5010771;28;20069;-38
2022/03/15 05:22:31;;;;;;;54.25;25.83;;;4.60;99.90;;;;;;5003838;28;20054;-38
2022/03/15 05:24:58;;;;;;;51.40;26.27;;;4.60;99.90;;;;;;5010935;28;20545;-39
2022/03/15 05:27:25;;;;;;;59.70;27.08;;;4.60;99.90;;;;;;5011451;28;20049;-38
2022/03/15 05:29:53;;;;;;;55.33;28.25;;;4.60;99.90;;;;;;5010117;28;20041;-39
2022/03/15 05:32:19;;;;;;;57.05;26.48;;;4.60;99.90;;;;;;5006195;28;20042;-38
2022/03/15 05:34:46;;;;;;;51.00;25.00;;;4.70;99.90;;;;;;5011909;28;20402;-38
2022/03/15 05:37:13;;;;;;;54.03;26.08;;;4.70;99.90;;;;;;5011797;28;20128;-38
2022/03/15 05:39:39;;;;;;;47.53;26.35;;;4.70;99.90;;;;;;5011490;28;20129;-39
2022/03/15 05:42:07;;;;;;;48.60;25.27;;;4.70;99.90;;;;;;5007026;28;20053;-39
2022/03/15 05:44:33;;;;;;;53.50;26.88;;;4.70;99.90;;;;;;5010993;28;20133;-38
2022/03/15 05:47:01;;;;;;;50.60;25.27;;;4.70;99.90;;;;;;5010608;28;20156;-39
2022/03/15 05:49:28;;;;;;;50.33;24.10;;;4.70;99.90;;;;;;5008865;28;20048;-38
2022/03/15 05:51:55;;;;;;;49.67;25.52;;;4.70;99.90;;;;;;5011273;28;20449;-38
2022/03/15 05:54:21;;;;;;;58.90;26.15;;;4.70;99.90;;;;;;5008834;28;20042;-38
2022/03/15 05:56:48;;;;;;;54.58;25.73;;;4.70;99.90;;;;;;5011000;28;20064;-38
2022/03/15 05:59:15;;;;;;;50.20;26.13;;;4.70;99.90;;;;;;5006416;28;20049;-39
2022/03/15 06:01:41;;;;;;;53.45;27.92;;;4.80;99.90;;;;;;5006172;28;20045;-39
2022/03/15 06:04:10;;;;;;;54.92;25.58;;;4.80;99.90;;;;;;5009708;28;20088;-38
2022/03/15 06:06:37;;;;;;;56.22;27.42;;;4.80;99.90;;;;;;5007409;28;20070;-38
2022/03/15 06:09:03;;;;;;;55.78;27.30;;;4.80;99.90;;;;;;5008642;28;20038;-38
2022/03/15 06:11:34;;;;;;;59.50;29.83;;;4.80;99.90;;;;;;5010387;28;20052;-38
2022/03/15 06:14:01;;;;;;;55.42;28.73;;;4.80;99.90;;;;;;5010749;28;20046;-39
2022/03/15 06:16:28;;;;;;;54.20;29.10;;;4.90;99.90;;;;;;5001989;28;20052;-39
2022/03/15 06:18:54;;;;;;;50.10;26.75;;;4.90;99.90;;;;;;5006820;28;20062;-38
2022/03/15 06:21:23;;;;;;;54.55;28.77;;;4.90;99.90;;;;;;4996894;28;20689;-38
2022/03/15 06:23:49;;;;;;;58.88;29.85;;;4.90;99.90;;;;;;5011334;28;20084;-38
2022/03/15 06:26:18;;;;;;;58.92;31.00;;;5.00;99.90;;;;;;5011040;28;20068;-38
2022/03/15 06:28:45;;;;;;;64.97;31.92;;;5.00;99.90;;;;;;5010296;28;20052;-39
2022/03/15 06:31:13;;;;;;;50.22;28.33;;;5.10;99.90;;;;;;5010614;28;20506;-39
2022/03/15 06:33:40;;;;;;;48.55;27.92;;;5.10;99.90;;;;;;5010818;28;20092;-38
2022/03/15 06:36:11;;;;;;;55.20;29.02;;;5.10;99.90;;;;;;5010699;28;20052;-40
2022/03/15 06:38:39;;;;;;;49.20;24.88;;;5.20;99.90;;;;;;5008179;28;20042;-39
2022/03/15 06:41:06;;;;;;;48.53;26.55;;;5.20;99.90;;;;;;5010940;28;20381;-39
2022/03/15 06:43:33;;;;;;;64.47;30.67;;;5.20;99.90;;;;;;5009630;28;20054;-40
2022/03/15 06:46:00;;;;;;;52.55;28.73;;;5.20;99.90;;;;;;5010566;28;20042;-39
2022/03/15 06:48:27;;;;;;;53.85;29.05;;;5.20;99.90;;;;;;5010904;28;20474;-39
2022/03/15 06:50:54;;;;;;;59.55;29.73;;;5.30;99.90;;;;;;5010289;28;20038;-40
2022/03/15 06:53:21;;;;;;;60.33;30.48;;;5.30;99.90;;;;;;5011030;28;20042;-39
2022/03/15 06:55:49;;;;;;;61.65;30.77;;;5.30;99.90;;;;;;5012512;28;20053;-39
2022/03/15 06:58:17;;;;;;;62.38;30.90;;;5.40;99.90;;;;;;5014715;28;20060;-39
2022/03/15 07:00:43;;;;;;;64.03;30.70;;;5.40;99.90;;;;;;5012598;28;20406;-40
2022/03/15 07:03:10;;;;;;;60.58;30.58;;;5.50;99.90;;;;;;5014131;28;20042;-40
2022/03/15 07:05:37;;;;;;;59.50;30.88;;;5.50;99.90;;;;;;5014492;28;20056;-40
2022/03/15 07:08:04;;;;;;;58.85;30.77;;;5.50;99.90;;;;;;5013482;28;20052;-40
2022/03/15 07:10:31;;;;;;;62.92;30.95;;;5.60;99.90;;;;;;5012349;28;20045;-38
2022/03/15 07:12:59;;;;;;;64.07;31.77;;;5.60;99.90;;;;;;5012237;28;20064;-39
2022/03/15 07:15:26;;;;;;;59.97;29.25;;;5.60;99.90;;;;;;5013010;28;20137;-39
2022/03/15 07:17:53;;;;;;;73.03;33.17;;;5.70;99.90;;;;;;5012088;28;20037;-39
2022/03/15 07:20:20;;;;;;;66.05;32.33;;;5.70;99.90;;;;;;5012660;28;20052;-40
2022/03/15 07:22:47;;;;;;;65.85;31.75;;;5.80;99.90;;;;;;5012342;28;20041;-39
2022/03/15 07:25:14;;;;;;;62.42;33.80;;;5.80;99.90;;;;;;5013871;28;20049;-38
2022/03/15 07:27:41;;;;;;;59.70;32.40;;;5.80;99.90;;;;;;5012105;28;20054;-38
2022/03/15 07:30:10;;;;;;;52.55;30.27;;;5.90;99.90;;;;;;5012615;28;20057;-39
2022/03/15 07:32:37;;;;;;;68.40;32.28;;;5.90;99.90;;;;;;5012262;28;20422;-38
2022/03/15 07:35:04;;;;;;;59.15;34.13;;;6.00;99.90;;;;;;5007162;28;20107;-38
2022/03/15 07:37:30;;;;;;;64.15;34.88;;;6.10;99.90;;;;;;5011421;28;20506;-38
2022/03/15 07:39:57;;;;;;;53.83;30.88;;;6.10;99.90;;;;;;5010618;28;20038;-38
2022/03/15 07:42:24;;;;;;;65.88;33.55;;;6.20;99.90;;;;;;5010606;28;20050;-40
2022/03/15 07:44:51;;;;;;;61.97;32.67;;;6.20;99.90;;;;;;5003264;28;20061;-39
2022/03/15 07:47:19;;;;;;;57.10;32.00;;;6.20;99.90;;;;;;5014104;28;20041;-39
2022/03/15 07:49:47;;;;;;;61.00;32.33;;;6.30;99.90;;;;;;5005445;28;20386;-39
2022/03/15 07:52:14;;;;;;;59.20;32.05;;;6.30;99.90;;;;;;5013629;28;20536;-40
2022/03/15 07:54:40;;;;;;;59.08;32.08;;;6.40;99.90;;;;;;5013570;28;20060;-40
2022/03/15 07:57:09;;;;;;;55.85;32.88;;;6.40;99.90;;;;;;5013613;28;20053;-39
2022/03/15 07:59:36;;;;;;;57.33;32.58;;;6.40;99.90;;;;;;5013298;28;20440;-40
2022/03/15 08:02:03;;;;;;;55.38;31.08;;;6.50;99.90;;;;;;5012282;28;20120;-40
2022/03/15 08:04:31;;;;;;;52.08;32.28;;;6.50;99.90;;;;;;5012853;28;20128;-40
2022/03/15 08:06:58;;;;;;;54.65;31.92;;;6.50;99.90;;;;;;5012092;28;20389;-40
2022/03/15 08:09:25;;;;;;;61.10;32.28;;;6.50;99.90;;;;;;5013567;28;20046;-39
2022/03/15 08:11:51;;;;;;;58.78;32.00;;;6.60;99.90;;;;;;5013330;28;20404;-38
2022/03/15 08:14:18;;;;;;;58.28;32.63;;;6.60;99.90;;;;;;5006148;28;20072;-39
2022/03/15 08:16:45;;;;;;;59.17;32.92;;;6.60;99.90;;;;;;5013307;28;20140;-39
2022/03/15 08:19:13;;;;;;;56.40;32.72;;;6.70;99.90;;;;;;5013428;28;20056;-38
2022/03/15 08:21:41;;;;;;;57.35;32.83;;;6.70;99.90;;;;;;5012193;28;20053;-38
2022/03/15 08:24:08;;;;;;;58.67;32.08;;;6.70;99.90;;;;;;5012648;28;20072;-38
2022/03/15 08:26:35;;;;;;;58.70;33.63;;;6.70;99.90;;;;;;5013377;28;20101;-37
2022/03/15 08:29:01;;;;;;;56.70;33.00;;;6.70;99.90;;;;;;5012957;28;20486;-38
2022/03/15 08:31:28;;;;;;;57.28;32.85;;;6.80;99.90;;;;;;5011343;28;20052;-37
2022/03/15 08:33:55;;;;;;;61.53;32.25;;;6.80;99.90;;;;;;5012654;28;20046;-38
2022/03/15 08:36:22;;;;;;;54.03;32.15;;;6.80;99.90;;;;;;5011604;28;20357;-39
2022/03/15 08:38:50;;;;;;;55.47;33.35;;;6.80;99.90;;;;;;5012798;28;20046;-38
2022/03/15 08:41:17;;;;;;;51.38;30.00;;;6.80;99.90;;;;;;5012300;28;20125;-39
2022/03/15 08:43:43;;;;;;;53.53;32.38;;;6.90;99.90;;;;;;5012392;28;20085;-38
2022/03/15 08:46:10;;;;;;;53.42;31.05;;;6.90;99.90;;;;;;5010867;28;20060;-38
2022/03/15 08:48:37;;;;;;;53.75;32.08;;;6.90;99.90;;;;;;5011203;28;20037;-38
2022/03/15 08:51:04;;;;;;;56.13;32.30;;;7.00;99.90;;;;;;5009408;28;20042;-38
2022/03/15 08:53:32;;;;;;;55.00;32.38;;;7.10;99.90;;;;;;5009057;28;20050;-39
2022/03/15 08:56:00;;;;;;;52.00;30.98;;;7.00;99.90;;;;;;5006042;28;20132;-38
2022/03/15 08:58:27;;;;;;;56.92;33.03;;;7.10;99.90;;;;;;5011378;28;20056;-38
2022/03/15 09:00:54;;;;;;;48.95;31.38;;;7.20;99.90;;;;;;5011249;28;20054;-38
2022/03/15 09:03:22;;;;;;;56.10;32.20;;;7.20;99.90;;;;;;5012103;28;20493;-39
2022/03/15 09:05:49;;;;;;;52.00;32.10;;;7.20;99.90;;;;;;5007009;28;20046;-38
2022/03/15 09:08:15;;;;;;;58.92;32.88;;;7.30;99.90;;;;;;5011355;28;20049;-39
2022/03/15 09:10:44;;;;;;;51.85;32.17;;;7.40;99.90;;;;;;5011174;28;20044;-38
2022/03/15 09:13:12;;;;;;;50.65;31.92;;;7.40;99.90;;;;;;5010416;28;20050;-38
2022/03/15 09:15:39;;;;;;;53.42;31.88;;;7.40;99.90;;;;;;5011609;28;20132;-38
2022/03/15 09:18:07;;;;;;;57.33;32.60;;;7.40;99.90;;;;;;5009736;28;20044;-39
2022/03/15 09:20:34;;;;;;;55.65;33.25;;;7.50;99.90;;;;;;5008756;28;20076;-39
2022/03/15 09:23:01;;;;;;;56.83;32.03;;;7.50;99.90;;;;;;5011347;28;20140;-38
2022/03/15 09:25:28;;;;;;;50.97;30.90;;;7.50;99.90;;;;;;5011665;28;20057;-38
2022/03/15 09:27:55;;;;;;;55.78;33.42;;;7.50;99.90;;;;;;5012043;28;20544;-38
2022/03/15 09:30:23;;;;;;;57.92;33.67;;;7.60;99.90;;;;;;5010077;28;20140;-38
2022/03/15 09:32:49;;;;;;;55.60;33.72;;;7.60;99.90;;;;;;5011885;28;20453;-37
2022/03/15 09:35:17;;;;;;;56.17;32.90;;;7.60;99.90;;;;;;5011929;28;20045;-38
2022/03/15 09:37:46;;;;;;;61.50;33.58;;;7.70;99.90;;;;;;5010493;28;20049;-37
2022/03/15 09:40:12;;;;;;;54.28;32.15;;;7.70;99.90;;;;;;5010448;28;20588;-38
2022/03/15 09:42:39;;;;;;;51.50;31.20;;;7.70;99.90;;;;;;5011440;28;20048;-37
2022/03/15 09:45:07;;;;;;;49.70;31.95;;;7.70;99.90;;;;;;5010779;28;20503;-37
2022/03/15 09:47:36;;;;;;;52.70;31.85;;;7.80;99.90;;;;;;5010635;28;20052;-37
2022/03/15 09:50:03;;;;;;;50.88;31.15;;;7.90;99.90;;;;;;5009782;28;20050;-38
2022/03/15 09:52:30;;;;;;;56.33;33.50;;;7.90;99.90;;;;;;5011185;28;20037;-38
2022/03/15 09:54:57;;;;;;;48.17;31.42;;;7.90;99.90;;;;;;5011509;28;20497;-38
2022/03/15 09:57:23;;;;;;;52.28;31.42;;;8.00;99.90;;;;;;5011995;28;20472;-38
2022/03/15 09:59:51;;;;;;;55.63;30.80;;;8.10;99.90;;;;;;5011430;28;20041;-38
2022/03/15 10:02:18;;;;;;;50.42;31.90;;;8.10;99.90;;;;;;5010771;28;20504;-38
2022/03/15 10:04:46;;;;;;;54.25;32.33;;;8.20;99.90;;;;;;5011392;28;20088;-38
2022/03/15 10:07:14;;;;;;;51.17;31.73;;;8.30;99.90;;;;;;5010552;28;20050;-38
2022/03/15 10:09:41;;;;;;;49.33;30.27;;;8.30;99.90;;;;;;5011189;28;20425;-38
2022/03/15 10:12:08;;;;;;;50.72;30.02;;;8.40;99.90;;;;;;5002885;28;20041;-39
2022/03/15 10:14:42;;;;;;;47.90;29.35;;;8.50;99.90;;;;;;5010782;28;20474;-38
2022/03/15 10:17:11;;;;;;;43.92;29.60;;;8.60;99.90;;;;;;5004239;28;20046;-38
2022/03/15 10:19:37;;;;;;;53.25;30.35;;;8.60;99.90;;;;;;5010417;28;20046;-38
2022/03/15 10:22:09;;;;;;;46.15;29.42;;;8.60;99.90;;;;;;5005264;28;20141;-38
2022/03/15 10:24:38;;;;;;;46.85;29.48;;;8.70;99.90;;;;;;5011232;28;20397;-39
2022/03/15 10:27:06;;;;;;;46.85;28.77;;;8.70;99.90;;;;;;5011010;28;20045;-39
2022/03/15 10:29:34;;;;;;;44.10;27.70;;;8.70;99.90;;;;;;5011500;28;20046;-39
2022/03/15 10:32:02;;;;;;;47.28;29.00;;;8.90;99.90;;;;;;5015168;28;20049;-39
2022/03/15 10:34:29;;;;;;;44.85;28.40;;;8.90;99.90;;;;;;5014562;28;20128;-39
2022/03/15 10:36:56;;;;;;;46.67;27.70;;;9.10;99.90;;;;;;5015123;28;20049;-39
2022/03/15 10:39:25;;;;;;;44.35;27.25;;;9.10;99.90;;;;;;5014650;28;20443;-38
2022/03/15 10:41:53;;;;;;;46.28;27.65;;;9.30;99.90;;;;;;5014717;28;20524;-39
2022/03/15 10:44:21;;;;;;;42.92;26.63;;;9.30;99.90;;;;;;5014842;28;20133;-39
2022/03/15 10:47:07;;;;;;;44.30;26.88;;;9.50;99.90;;;;;;5013040;28;20346;-42
2022/03/15 10:49:48;;;;;;;44.58;26.25;;;9.60;99.90;;;;;;5009792;28;20052;-39
2022/03/15 10:52:15;;;;;;;43.13;24.20;;;9.60;99.90;;;;;;5006656;28;20367;-39
2022/03/15 10:54:45;;;;;;;46.75;25.60;;;9.70;99.90;;;;;;5014441;28;20084;-39
2022/03/15 10:57:12;;;;;;;40.35;24.75;;;9.70;99.90;;;;;;5013447;28;20338;-39
2022/03/15 10:59:41;;;;;;;40.80;24.25;;;9.80;99.90;;;;;;5014170;28;20461;-39
2022/03/15 11:02:10;;;;;;;39.70;24.38;;;9.90;99.90;;;;;;5014334;28;20116;-39
2022/03/15 11:04:46;;;;;;;39.42;25.20;;;9.90;99.90;;;;;;5014022;28;20496;-39
2022/03/15 11:07:13;;;;;;;36.03;23.08;;;10.00;99.90;;;;;;5013954;28;20048;-39
2022/03/15 11:09:39;;;;;;;37.67;23.52;;;10.10;99.90;;;;;;5013119;28;20045;-39
2022/03/15 11:12:09;;;;;;;41.97;24.33;;;10.10;99.90;;;;;;5013993;28;20368;-39
2022/03/15 11:14:39;;;;;;;39.13;23.08;;;10.20;99.90;;;;;;5012083;28;20056;-39
2022/03/15 11:17:10;;;;;;;34.30;22.25;;;10.20;99.90;;;;;;5011809;28;20046;-39
2022/03/15 11:19:40;;;;;;;34.10;22.52;;;10.30;99.90;;;;;;5012414;28;20137;-38
2022/03/15 11:22:07;;;;;;;32.72;20.45;;;10.40;99.90;;;;;;5007497;28;20045;-39
2022/03/15 11:24:35;;;;;;;28.80;17.33;;;10.50;99.90;;;;;;5006035;28;20057;-39
2022/03/15 11:27:02;;;;;;;30.73;15.38;;;10.50;99.90;;;;;;5014151;28;20510;-39
2022/03/15 11:29:32;;;;;;;32.80;17.25;;;10.50;99.90;;;;;;5005610;28;20045;-39
2022/03/15 11:31:59;;;;;;;25.05;16.65;;;10.60;99.90;;;;;;5013839;28;20037;-39
2022/03/15 11:34:26;;;;;;;31.60;17.08;;;10.60;99.90;;;;;;5008604;28;20046;-39
2022/03/15 11:36:53;;;;;;;31.00;17.77;;;10.70;99.90;;;;;;5013510;28;20054;-39
2022/03/15 11:39:20;;;;;;;25.92;17.13;;;10.80;99.90;;;;;;5012751;28;20058;-40
2022/03/15 11:41:46;;;;;;;33.03;17.23;;;10.80;99.90;;;;;;5011931;28;20080;-39
2022/03/15 11:44:15;;;;;;;30.98;17.67;;;10.90;99.90;;;;;;5012354;28;20060;-39
2022/03/15 11:46:45;;;;;;;33.13;18.38;;;10.90;99.90;;;;;;5013604;28;20048;-40
2022/03/15 11:49:21;;;;;;;28.02;16.23;;;11.00;99.90;;;;;;5013239;28;20045;-39
2022/03/15 11:51:55;;;;;;;30.38;16.13;;;11.00;99.90;;;;;;5012747;28;20396;-39
2022/03/15 11:54:26;;;;;;;26.38;16.42;;;11.10;99.90;;;;;;5011845;28;20054;-39
2022/03/15 11:56:54;;;;;;;26.35;15.45;;;11.10;99.90;;;;;;5010009;28;20057;-40
2022/03/15 11:59:21;;;;;;;26.85;14.82;;;11.10;99.90;;;;;;5012835;28;20052;-40
2022/03/15 12:01:51;;;;;;;23.25;15.13;;;11.10;99.90;;;;;;5013133;28;20048;-40
2022/03/15 12:04:18;;;;;;;24.25;15.70;;;11.20;99.90;;;;;;5013142;28;20041;-40
2022/03/15 12:06:50;;;;;;;30.38;16.00;;;11.10;99.90;;;;;;5012148;28;20045;-40
2022/03/15 12:09:20;;;;;;;24.75;15.45;;;11.10;99.90;;;;;;5011423;28;20100;-40
2022/03/15 12:11:47;;;;;;;30.33;16.30;;;11.10;99.90;;;;;;5011577;28;20121;-40
2022/03/15 12:14:17;;;;;;;28.02;16.45;;;11.10;99.90;;;;;;4978417;28;20336;-40
2022/03/15 12:16:50;;;;;;;22.38;15.45;;;11.10;99.90;;;;;;4980974;28;20397;-41
2022/03/15 12:19:35;;;;;;;23.77;16.20;;;11.10;99.90;;;;;;5010943;28;20482;-40
2022/03/15 12:22:06;;;;;;;26.98;17.15;;;11.20;99.90;;;;;;5012858;28;20417;-40
2022/03/15 12:24:34;;;;;;;30.63;17.85;;;11.20;99.90;;;;;;5012799;28;20133;-40
2022/03/15 12:27:02;;;;;;;30.83;16.23;;;11.20;99.90;;;;;;5010348;28;20060;-40
2022/03/15 12:29:29;;;;;;;27.80;17.20;;;11.20;99.90;;;;;;5011678;28;20242;-40
2022/03/15 12:31:57;;;;;;;25.77;15.98;;;11.30;99.90;;;;;;5011928;28;20038;-39
2022/03/15 12:34:25;;;;;;;26.38;14.80;;;11.30;99.90;;;;;;5012388;28;20402;-39
2022/03/15 12:36:53;;;;;;;24.73;14.27;;;11.30;99.90;;;;;;5012750;28;20050;-39
2022/03/15 12:39:21;;;;;;;30.65;15.18;;;11.30;99.90;;;;;;5009198;28;20125;-39
2022/03/15 12:41:49;;;;;;;27.70;15.15;;;11.40;99.90;;;;;;5011533;28;20038;-38